Bay Area Logo

Fremont, CA Condo Real Estate Listings

181 Total Real Estate Listings * Click on table heading to sort
Date Posted Property Type Style Address Price Living Area Lot Size Price/Sq Ft.
2018-11-17 Condo 39109 Guardino Drive Fremont, CA 94538 $599,999 857 sq. ft. 266,152 sq. ft. $700
2018-11-17 Condo Contemporary 39109 Guardino Dr Fremont, CA 94538 $599,999 857 sq. ft. $700
2018-11-16 Condo 39161 Declaration Street Fremont, CA 94538 $996,000 1,411 sq. ft. $706
2018-11-16 Condo 3419 Bridgewood Ter Fremont, CA 94536 $369,888 714 sq. ft. $518
2018-11-16 Condo Contemporary 39139 Argonaut Way Fremont, CA 94538 $470,000 864 sq. ft. $544
2018-11-14 Condo 3851 Red Lake Terrace Fremont, CA 94555 $575,000 991 sq. ft. 1,307 sq. ft. $580
2018-11-13 Condo Tudor 34240 Gadwall Cmn Fremont, CA 94555 $998,950 1,405 sq. ft. 4,792 sq. ft. $711
2018-11-13 Condo Mediterranean 7 Catania Common Fremont, CA 94536 $1,059,880 1,857 sq. ft. 1,742 sq. ft. $571
2018-11-10 Condo Contemporary 2348 Kinetic Common Fremont, CA 94539 $1,170,990 1,688 sq. ft. $694
2018-11-10 Condo Contemporary 2348 Kinetic Common Fremont, CA 94539 $1,212,990 1,890 sq. ft. $642
2018-11-10 Condo 43139 Mayfair Park Terrace Fremont, CA 94538 $748,000 1,224 sq. ft. 1,307 sq. ft. $611
2018-11-10 Condo 43139 Mayfair Park Ter Fremont, CA 94538 $748,000 1,224 sq. ft. 1,307 sq. ft. $611
2018-11-10 Condo Contemporary 34744 Tuxedo Cmn Fremont, CA 94555 $699,000 991 sq. ft. $705
2018-11-09 Condo Contemporary 2348 Kinetic Common Fremont, CA 94539 $1,076,990 1,725 sq. ft. $624
2018-11-09 Condo Contemporary 2348 Kinetic Common Fremont, CA 94539 $1,325,990 2,305 sq. ft. $575
2018-11-09 Condo Contemporary 4013 Caribbean Cmn Fremont, CA 94555 $599,900 988 sq. ft. 871 sq. ft. $607
2018-11-09 Condo Contemporary 39455 Albany Cmn Fremont, CA 94538 $580,000 991 sq. ft. $585
2018-11-09 Condo Contemporary 46866 Fernald Common Fremont, CA 94539 $679,000 943 sq. ft. 871 sq. ft. $720
2018-11-09 Condo Contemporary 34176 Brindisi Ter Fremont, CA 94555 $888,000 1,387 sq. ft. $640
2018-11-08 Condo 4135 Sora Cmn Fremont, CA 94555 $889,995 1,637 sq. ft. 2,614 sq. ft. $544
2018-11-08 Condo Contemporary 34103 Spezia Ter Fremont, CA 94555 $899,000 1,481 sq. ft. $607
2018-11-08 Condo 150 Branta Common Fremont, CA 94539 $998,000 1,528 sq. ft. $653
2018-11-07 Condo 37619 Fremont Boulevard Fremont, CA 94536 $750,000 1,100 sq. ft. $682
2018-11-07 Condo Traditional 38760 Huntington Circle Fremont, CA 94536 $828,000 1,284 sq. ft. 15,246 sq. ft. $645
2018-11-07 Condo Contemporary 34176 Brindisi Terrace Fremont, CA 94555 $888,000 1,387 sq. ft. 38,768 sq. ft. $640
2018-11-07 Condo Traditional 38760 Huntington Cir Fremont, CA 94536 $828,000 1,284 sq. ft. $645
2018-11-07 Condo 48942 Lady Fern Common Fremont, CA 94539 $898,000 1,450 sq. ft. 8,276 sq. ft. $619
2018-11-07 Condo Contemporary 39078 Guardino Drive Fremont, CA 94538 $439,000 693 sq. ft. $633
2018-11-07 Condo 48942 Lady Fern Commons Fremont, CA 94539 $898,000 1,450 sq. ft. $619
2018-11-06 Condo Contemporary 4463 Hyde Common Fremont, CA 94538 $899,000 1,671 sq. ft. 68,389 sq. ft. $538
2018-11-06 Condo Contemporary 46866 Fernald Common Fremont, CA 94539 $679,000 943 sq. ft. 871 sq. ft. $720
2018-11-06 Condo Contemporary 4629 Millbrook Ter Fremont, CA 94538 $779,950 1,242 sq. ft. 871 sq. ft. $628
2018-11-06 Condo Contemporary 38533 Vancouver Cmn Fremont, CA 94536 $589,950 976 sq. ft. 871 sq. ft. $604
2018-11-02 Condo Contemporary 37446 Parish Cir Fremont, CA 94536 $600,000 942 sq. ft. 123,710 sq. ft. $637
2018-11-01 Condo Contemporary 3888 Invent Terrace Fremont, CA 94538 $999,800 1,479 sq. ft. $676
2018-11-01 Condo Contemporary 44828 Fremont Blvd Fremont, CA 94538 $1,055,000 1,701 sq. ft. $620
2018-11-01 Condo Contemporary 38623 Cherry Ln Fremont, CA 94536 $619,000 1,199 sq. ft. 649,044 sq. ft. $516
2018-11-01 Condo Contemporary 38919 Cherry Glen Cmn Fremont, CA 94536 $689,000 1,168 sq. ft. $590
2018-10-31 Condo Contemporary 41497 Timber Creek Ter Fremont, CA 94539 $1,210,000 1,620 sq. ft. 2,178 sq. ft. $747
2018-10-31 Condo 3530 Oakwood Terrace Fremont, CA 94536 $520,000 1,083 sq. ft. 2,178 sq. ft. $480
2018-10-31 Condo Traditional 38228 Paseo Padre Pkwy Fremont, CA 94536 $299,888 750 sq. ft. 871 sq. ft. $400
2018-10-26 Condo 3660 Knollwood Terrace Fremont, CA 94536 $575,000 1,125 sq. ft. 0 sq. ft. $511
2018-10-26 Condo 41000 Genesis Common Fremont, CA 94538 $950,000 1,685 sq. ft. 1,307 sq. ft. $564
2018-10-26 Condo 4666 Devonshire Common Fremont, CA 94536 $649,000 1,140 sq. ft. 165,528 sq. ft. $569
2018-10-26 Condo Contemporary 4666 Devonshire Common Fremont, CA 94536 $649,000 1,140 sq. ft. 3,920 sq. ft. $569
2018-10-25 Condo Contemporary 4018 Central Avenue Fremont, CA 94536 $970,000 1,850 sq. ft. 0 sq. ft. $524
2018-10-25 Condo Contemporary 3602 Langdon Common Fremont, CA 94538 $799,950 1,174 sq. ft. 871 sq. ft. $681
2018-10-25 Condo 3602 Langdon Common Fremont, CA 94538 $799,950 1,174 sq. ft. 871 sq. ft. $681
2018-10-25 Condo Contemporary 5181 Fairbanks Cmn Fremont, CA 94555 $775,000 950 sq. ft. 162,479 sq. ft. $816
2018-10-24 Condo Contemporary 4059 Lorenzo Ter Fremont, CA 94536 $749,000 1,126 sq. ft. 1,307 sq. ft. $665
2018-10-24 Condo 5736 Birch Terrace Fremont, CA 94538 $543,000 945 sq. ft. 1,307 sq. ft. $575
2018-10-24 Condo Contemporary 1225 Koi Terrace Fremont, CA 94536 $928,888 1,400 sq. ft. 871 sq. ft. $663
2018-10-24 Condo Contemporary 38566 Vancouver Cmn Fremont, CA 94536 $649,999 976 sq. ft. 871 sq. ft. $666
2018-10-23 Condo 5667 Statice Common Fremont, CA 94538 $719,000 1,157 sq. ft. $621
2018-10-21 Condo 3419 Bridgewood Terrace Fremont, CA 94536 $425,000 714 sq. ft. 71,438 sq. ft. $595
2018-10-19 Condo 39951 Fremont Blvd Fremont, CA 94536 $649,800 1,146 sq. ft. 6,534 sq. ft. $567
2018-10-19 Condo 3508 Madison Common Fremont, CA 94538 $799,000 1,174 sq. ft. 871 sq. ft. $681
2018-10-19 Condo Contemporary 5245 Tacoma Common Fremont, CA 94555 $748,000 950 sq. ft. 162,479 sq. ft. $787
2018-10-19 Condo Contemporary 5245 Tacoma Common Fremont, CA 94555 $748,000 950 sq. ft. 162,479 sq. ft. $787
2018-10-18 Condo Mediterranean 3508 Madison Cmn Fremont, CA 94538 $799,000 1,174 sq. ft. 871 sq. ft. $681
2018-10-17 Condo Contemporary 3497 Gilman Cmn Fremont, CA 94538 $1,029,950 1,637 sq. ft. 1,307 sq. ft. $629
2018-10-17 Condo Contemporary 38623 Cherry Lane Fremont, CA 94536 $400,000 623 sq. ft. 2,614 sq. ft. $642
2018-10-17 Condo Contemporary 1005 Dolphin Cmn Fremont, CA 94536 $989,000 1,610 sq. ft. 1,742 sq. ft. $614
2018-10-16 Condo 3695 Stevenson Blvd Fremont, CA 94538 $688,000 1,040 sq. ft. $662
2018-10-13 Condo Contemporary 1737 Vancouver Grn Fremont, CA 94536 $625,000 976 sq. ft. 871 sq. ft. $640
2018-10-12 Condo Contemporary 2339 Kinetic Common Fremont, CA 94539 $1,424,990 2,780 sq. ft. $513
2018-10-12 Condo Traditional 38455 Bronson St Fremont, CA 94536 $499,000 950 sq. ft. $525
2018-10-12 Condo 4510 Thornton Ave Fremont, CA 94536 $559,900 1,008 sq. ft. $555
2018-10-12 Condo 4510 Thornton Avenue Fremont, CA 94536 $559,900 1,008 sq. ft. 64,469 sq. ft. $555
2018-10-12 Condo Contemporary 38780 Tyson Lane Fremont, CA 94536 $695,000 1,305 sq. ft. 1,307 sq. ft. $533
2018-10-11 Condo 4463 Hyde Common Fremont, CA 94538 $899,000 1,671 sq. ft. 68,389 sq. ft. $538
2018-10-10 Condo Contemporary 3927 Wildflower Common Fremont, CA 94538 $728,000 1,152 sq. ft. 111,078 sq. ft. $632
2018-10-10 Condo Contemporary 5277 Fairbanks Cmn Fremont, CA 94555 $828,888 950 sq. ft. $873
2018-10-10 Condo Spanish 3695 Stevenson Blvd Fremont, CA 94538 $688,000 1,040 sq. ft. $662
2018-10-10 Condo Contemporary 3927 Wildflower Cmn Fremont, CA 94538 $728,000 1,152 sq. ft. 111,078 sq. ft. $632
2018-10-10 Condo 39206 Guardino Drive Fremont, CA 94538 $439,000 693 sq. ft. 212,573 sq. ft. $633
2018-10-10 Condo Contemporary 39206 Guardino Dr Fremont, CA 94538 $439,000 693 sq. ft. $633
2018-10-09 Condo 39034 Guardino Dr Fremont, CA 94538 $479,000 693 sq. ft. $691
2018-10-09 Condo Contemporary 984 Huntington Ter Fremont, CA 94536 $739,000 1,168 sq. ft. $633
2018-10-08 Condo Contemporary 42111 Osgood Road Fremont, CA 94539 $707,830 877 sq. ft. 871 sq. ft. $807
2018-10-08 Condo Mediterranean 15 Catania Common Fremont, CA 94536 $1,039,880 1,799 sq. ft. 1,307 sq. ft. $578
2018-10-07 Condo Traditional 4017 Caribbean Cmn Fremont, CA 94555 $624,950 988 sq. ft. 871 sq. ft. $633
2018-10-06 Condo Contemporary 45258 Tom Blalock Street Fremont, CA 94539 $859,995 1,158 sq. ft. $743
2018-10-06 Condo Contemporary 2339 Kinetic Common Fremont, CA 94539 $1,055,000 1,576 sq. ft. $669
2018-10-06 Condo Contemporary 45228 Tom Blalock Street Fremont, CA 94539 $964,995 1,608 sq. ft. $600
2018-10-06 Condo Contemporary 45228 Tom Blalock Street Fremont, CA 94539 $1,005,000 1,786 sq. ft. $563
2018-10-06 Condo 38372 Redwood Terrace Fremont, CA 94536 $899,000 1,521 sq. ft. 33,541 sq. ft. $591
2018-10-05 Condo Contemporary 1228 Albacore Ter Fremont, CA 94536 $925,000 1,400 sq. ft. 871 sq. ft. $661
2018-10-04 Condo Contemporary 38872 Cherry Glen Cmn Fremont, CA 94536 $625,000 840 sq. ft. $744
2018-10-04 Condo 3768 Colet Ter Fremont, CA 94536 $650,000 1,168 sq. ft. 871 sq. ft. $557
2018-10-04 Condo 37248 Meadowbrook Cmn Fremont, CA 94536 $560,000 1,140 sq. ft. $491
2018-10-03 Condo Contemporary 2755 Country Dr Fremont, CA 94536 $399,000 750 sq. ft. $532
2018-10-03 Condo 39109 Guardino Drive Fremont, CA 94538 $659,000 1,053 sq. ft. $626
2018-10-03 Condo Contemporary 4463 Hyde Cmn Fremont, CA 94538 $870,000 1,244 sq. ft. $699
2018-09-29 Condo 3655 Birchwood Ter Fremont, CA 94536 $555,000 1,125 sq. ft. $493
2018-09-28 Condo Contemporary 2339 Kinetic Common Fremont, CA 94539 $1,181,000 2,034 sq. ft. $581
2018-09-28 Condo Contemporary 1945 Barrymore Cmn Fremont, CA 94538 $599,999 991 sq. ft. $605
2018-09-28 Condo 34747 Chanel Terrace Fremont, CA 94555 $988,000 1,346 sq. ft. 116,741 sq. ft. $734
2018-09-28 Condo 39152 Guardino Dr Fremont, CA 94538 $443,000 693 sq. ft. $639
2018-09-27 Condo Contemporary 42111 Osgood Road Fremont, CA 94539 $564,320 676 sq. ft. 871 sq. ft. $835
2018-09-27 Condo 42952 Via Valparaiso Fremont, CA 94539 $888,000 1,242 sq. ft. 871 sq. ft. $715
2018-09-27 Condo Contemporary 36450 Grace Terrace Fremont, CA 94536 $995,000 1,475 sq. ft. 1,307 sq. ft. $675
2018-09-27 Condo 205 Shaniko Cmn Fremont, CA 94539 $749,000 1,214 sq. ft. $617
2018-09-26 Condo 3658 Capitol Avenue Fremont, CA 94538 $1,088,000 1,317 sq. ft. $826
2018-09-26 Condo Contemporary 157 Hanna Terrace Fremont, CA 94536 $619,888 1,080 sq. ft. 871 sq. ft. $574
2018-09-26 Condo Contemporary 157 Hanna Ter Fremont, CA 94536 $619,888 1,080 sq. ft. 871 sq. ft. $574
2018-09-25 Condo Contemporary 3532 Braxton Cmn Fremont, CA 94538 $850,000 1,317 sq. ft. 871 sq. ft. $645
2018-09-21 Condo 3695 Stevenson Blvd Fremont, CA 94538 $688,000 1,040 sq. ft. $662
2018-09-20 Condo 41004 Genesis Common Fremont, CA 94538 $948,000 1,662 sq. ft. 871 sq. ft. $570
2018-09-20 Condo Mediterranean 39099 Walnut Ter Fremont, CA 94536 $699,000 1,104 sq. ft. $633
2018-09-19 Condo 38455 Bronson Street Fremont, CA 94536 $299,000 750 sq. ft. 185,130 sq. ft. $399
2018-09-18 Condo Contemporary 4630 Devonshire Common Fremont, CA 95460 $619,000 1,140 sq. ft. $543
2018-09-18 Condo Contemporary 45128 Warm Spring Blvd Fremont, CA 94539 $1,009,000 1,520 sq. ft. $664
2018-09-14 Condo Mediterranean; Traditional 34390 Anzio Ter Fremont, CA 94555 $949,888 1,514 sq. ft. $627
2018-09-14 Condo Traditional 38856 Northern Cmn Fremont, CA 94536 $928,888 1,400 sq. ft. 871 sq. ft. $663
2018-09-13 Condo 37000 Meadowbrook Cmn Fremont, CA 94536 $549,000 1,083 sq. ft. $507
2018-09-13 Condo Mediterranean 27 Catania Common Fremont, CA 94536 $1,039,880 1,799 sq. ft. 1,307 sq. ft. $578
2018-09-10 Condo 3658 Capitol Avenue Fremont, CA 94538 $848,000 1,109 sq. ft. $765
2018-09-10 Condo 3607 Nation Avenue Fremont, CA 94538 $992,000 1,411 sq. ft. 58,370 sq. ft. $703
2018-09-09 Condo 36126 Potel Common Fremont, CA 94536 $699,000 1,213 sq. ft. 1,742 sq. ft. $576
2018-09-07 Condo Contemporary 3459 Pennsylvania Cmn Fremont, CA 94536 $599,999 944 sq. ft. 50,094 sq. ft. $636
2018-09-07 Condo 344 Goleta Terrace Fremont, CA 94536 $629,000 1,140 sq. ft. 871 sq. ft. $552
2018-09-07 Condo 344 Goleta Ter Fremont, CA 94536 $629,000 1,140 sq. ft. 871 sq. ft. $552
2018-09-06 Condo 38740 Tyson Lane Fremont, CA 94536 $738,800 1,124 sq. ft. 134,165 sq. ft. $657
2018-09-04 Condo 318 Stacey Common Fremont, CA 94539 $688,000 926 sq. ft. 871 sq. ft. $743
2018-08-29 Condo 3416 Deerwood Ter Fremont, CA 94536 $350,000 714 sq. ft. 147,233 sq. ft. $490
2018-08-29 Condo Mediterranean 37617 Pimento Common Fremont, CA 94536 $958,888 1,791 sq. ft. $535
2018-08-28 Condo Contemporary 39029 Guardino Dr Fremont, CA 94538 $439,000 693 sq. ft. $633
2018-08-27 Condo 3658 Capitol Avenue Fremont, CA 94538 $798,000 1,109 sq. ft. $720
2018-08-27 Condo 3658 Capitol Avenue Fremont, CA 94538 $648,000 728 sq. ft. $890
2018-08-27 Condo 43089 Mayfair Park Terrace Fremont, CA 94538 $779,000 1,224 sq. ft. 871 sq. ft. $636
2018-08-24 Condo 49170 Aster Fremont, CA 94539 $792,800 1,114 sq. ft. 436 sq. ft. $712
2018-08-23 Condo 36126 Potel Cmn Fremont, CA 94536 $699,000 1,213 sq. ft. 1,742 sq. ft. $576
2018-08-22 Condo 49170 Aster Terrace Fremont, CA 94539 $792,800 1,114 sq. ft. 11,326 sq. ft. $712
2018-08-17 Condo 43230 Portofino Ter Fremont, CA 94539 $948,000 1,196 sq. ft. 1,307 sq. ft. $793
2018-08-17 Condo Cottage 43230 Portofino Ter Fremont, CA 94539 $948,000 1,196 sq. ft. 871 sq. ft. $793
2018-08-17 Condo Contemporary 43089 Mayfair Park Ter Fremont, CA 94538 $779,000 1,224 sq. ft. 871 sq. ft. $636
2018-08-14 Condo Contemporary 3839 Development Terrace Fremont, CA 94538 $979,880 1,283 sq. ft. $764
2018-08-14 Condo Contemporary 44849 Insight Street Fremont, CA 94538 $1,299,880 2,221 sq. ft. $585
2018-08-12 Condo 4236 Tanager Terrace Fremont, CA 94555 $1,080,000 1,590 sq. ft. 4,792 sq. ft. $679
2018-08-09 Condo 3000 Benjamin Green Fremont, CA 94538 $899,000 1,748 sq. ft. 1,742 sq. ft. $514
2018-08-08 Condo Traditional 4236 Tanager Ter Fremont, CA 94555 $1,080,000 1,590 sq. ft. 4,792 sq. ft. $679
2018-08-08 Condo Mediterranean 3000 Benjamin Green Fremont, CA 94538 $899,000 1,748 sq. ft. 1,742 sq. ft. $514
2018-08-08 Condo Spanish 4427 Escala Ter Fremont, CA 94536 $539,950 988 sq. ft. 871 sq. ft. $547
2018-08-06 Condo Traditional 37438 Parish Cir Fremont, CA 94536 $599,900 942 sq. ft. 123,710 sq. ft. $637
2018-08-03 Condo 47073 Benns Ter Fremont, CA 94539 $685,000 894 sq. ft. 10,000,070 sq. ft. $766
2018-07-24 Condo Contemporary 3655 Birchwood Terr Fremont, CA 94536 $358,000 714 sq. ft. $501
2018-07-24 Condo Contemporary 3416 Deerwood Ter Fremont, CA 94536 $350,000 714 sq. ft. $490
2018-07-20 Condo Contemporary 45128 Warm Springs Blvd Fremont, CA 94539 $943,995 1,300 sq. ft. $726
2018-07-19 Condo 39156 Declaration Street Fremont, CA 94538 $988,000 1,411 sq. ft. $700
2018-07-03 Condo Contemporary 39154 Declaration Street Fremont, CA 94538 $1,138,000 1,790 sq. ft. $636
2018-07-02 Condo Contemporary 45128 Warm Springs Blvd Fremont, CA 94539 $736,995 800 sq. ft. $921
2018-06-26 Condo 248 Hackamore Commons Fremont, CA 94539 $499,000 665 sq. ft. 104,980 sq. ft. $750
2018-06-23 Condo Contemporary 3634 Jubilee Court Fremont, CA 94538 $1,078,000 1,661 sq. ft. $649
2018-06-23 Condo Contemporary 39160 Declaration Street Fremont, CA 94538 $988,000 1,411 sq. ft. $700
2018-06-21 Condo 248 Hackamore Common Fremont, CA 94539 $499,000 665 sq. ft. 104,980 sq. ft. $750
2018-06-18 Condo Contemporary 39158 Declaration Fremont, CA 94538 $1,138,000 1,790 sq. ft. $636
2018-06-18 Condo Contemporary 39156 Declaration Fremont, CA 94538 $988,000 1,411 sq. ft. $700
2018-06-17 Condo 39162 Declaration Steet Fremont, CA 94538 $1,138,000 1,790 sq. ft. $636
2018-06-01 Condo 3695 Stevenson Boulevard Fremont, CA 94538 $675,000 1,040 sq. ft. $649
2018-05-30 Condo Contemporary 3909 Stevenson Fremont, CA 94538 $480,000 740 sq. ft. $649
2018-05-20 Condo 39146 Declaration Street Fremont, CA 94538 $1,128,000 1,790 sq. ft. $630
2018-05-12 Condo 3628 Celebration Terrace Fremont, CA 94538 $1,168,000 1,786 sq. ft. $654
2018-05-12 Condo 3624 Celebration Terrace Fremont, CA 94538 $958,000 1,411 sq. ft. $679
2018-05-12 Condo 3617 Carnival Terrace Fremont, CA 94538 $1,118,000 1,661 sq. ft. $673
2018-05-12 Condo 3613 Carnival Terrace Fremont, CA 94538 $1,148,000 1,662 sq. ft. $691
2018-05-10 Condo Contemporary 45188 Tom Blalock St Fremont, CA 94539 $1,076,990 1,730 sq. ft. $623
2018-01-18 Condo Contemporary 34541 Fremont Blvd Fremont, CA 94555 $795,130 1,161 sq. ft. $685
2017-06-21 Condo 34323 Bodkin Ter Fremont, CA 94555 $938,000 1,891 sq. ft. 2,426 sq. ft. $496
2017-06-21 Condo 39263 Walnut Ter Fremont, CA 94536 $649,000 1,270 sq. ft. 107,994 sq. ft. $511
2017-06-15 Condo 4463 Hyde Cmn 204 Fremont, CA 94538 $780,000 1,671 sq. ft. $467
2017-06-13 Condo Contemporary 3300 Wolcott Cmn 213 Fremont, CA 94538 $450,000 1,013 sq. ft. 86,223 sq. ft. $444
2017-06-13 Condo Contemporary 38686 Huntington Cir Fremont, CA 94536 $588,000 1,168 sq. ft. $503
2017-06-13 Condo 3631 Madison Cmn Fremont, CA 94538 $788,000 1,637 sq. ft. 1,137 sq. ft. $481
2017-06-01 Condo 4542 Merced Cmn Fremont, CA 94536 $489,000 1,050 sq. ft. 122,404 sq. ft. $466
2017-06-01 Condo 6044 Roma Ter 103 Fremont, CA 94555 $750,000 1,395 sq. ft. 6,839 sq. ft. $538
2017-05-29 Condo 4306 Alema Ter Fremont, CA 94536 $459,000 884 sq. ft. 1,437 sq. ft. $519
2017-05-22 Condo 4664 Devonshire Cmn 19 Fremont, CA 94536 $529,950 945 sq. ft. 165,528 sq. ft. $561
2017-05-19 Condo 3803 Eggers Dr Fremont, CA 94536 $995,000 1,930 sq. ft. 1,220 sq. ft. $516
2017-05-18 Condo Contemporary 5005 Crystal Ter Fremont, CA 94555 $458,000 716 sq. ft. 331,012 sq. ft. $640
2017-05-12 Condo Contemporary 3803 Eggers Dr 38299 Fremont, CA 94536 $934,900 1,645 sq. ft. 1,220 sq. ft. $568